Terminal Aerodrome Forecast
Issued by NWS Pendleton, OR

Home | Current Version | Previous Version | Text Only | Print | Product List | Glossary On
Versions: 1 2 3 4 5 6 7 8 9 10 11 12 13 14
000
FTUS46 KPDT 230500
TAFPDT
TAF
KPDT 230522Z 2306/2406 29008KT P6SM BKN080
      TEMPO 2306/2310 -SHRA
     FM231900 33010KT P6SM SCT080=

USA.gov is the U.S. government's official web portal to all federal, state and local government web resources and services.